Latest Coastal Weather Observations for Cape Borda

IDS60701

Issued at 10:31 am CDT Saturday 21 January 2017 (issued every 10 minutes, with the page automatically refreshed every 10 minutes)

About coastal observations | Map of coastal stations | Coastal observations for SA | Marine services | Other Formats
Station Details ID: 022823 Name: CAPE BORDA Lat: -35.75 Lon: 136.60 Height: 158.0 m
Data from the previous 72 hours. | See also: Recent months at Cape Borda
Date/Time
CDT
Temp
°C
Wind Pressure Rain since
9am
mm
Weather Cloud Vis
km
Sea
Height
m
Swell
Dir  Spd
kts
Gust
kts
hPa Trend Height
m
Period
s
Dir
21/10:30am 18.5 NE 11 15 1015.5 - 0.0 - - - - - - -
21/10:00am 18.2 NE 11 16 1015.4 - 0.0 - - - - - - -
21/09:30am 17.7 NE 9 14 1015.6 - 0.0 - - - - - - -
21/09:00am 17.0 NE 9 13 1015.1 F 0.0 Fine Mostly clear 30 <0.5 2.8 9 SW
21/08:30am 16.3 E 7 9 1015.4 - 0.0 - - - - - - -
21/08:00am 15.2 E 6 7 1015.3 - 0.0 - - - - - - -
21/07:30am 13.7 E 5 6 1014.9 - 0.0 - - - - - - -
21/07:00am 12.1 E 7 8 1014.4 - 0.0 - - - - - - -
21/06:30am 11.1 ESE 8 9 1014.2 - 0.0 - - - - - - -
21/06:00am 11.5 ESE 8 9 1013.9 - 0.0 - - - - - - -
21/05:30am 11.5 ESE 7 8 1013.9 - 0.0 - - - - - - -
21/05:00am 11.5 SE 6 7 1013.8 - 0.0 - - - - - - -
21/04:30am 11.8 SE 7 7 1013.8 - 0.0 - - - - - - -
21/04:00am 12.0 SE 7 8 1013.5 - 0.0 - - - - - - -
21/03:30am 12.1 SE 8 8 1013.5 - 0.0 - - - - - - -
21/03:00am 12.4 SSE 7 8 1013.6 - 0.0 - - - - - - -
21/02:30am 12.4 SSE 7 8 1013.9 - 0.0 - - - - - - -
21/02:00am 12.3 SSE 8 8 1013.8 - 0.0 - - - - - - -
21/01:30am 12.6 SSE 8 9 1013.8 - 0.0 - - - - - - -
21/01:00am 12.6 SSE 8 8 1013.9 - 0.0 - - - - - - -
21/12:30am 12.8 SSE 8 9 1013.8 - 0.0 - - - - - - -
21/12:00am 13.1 SSE 7 8 1013.4 - 0.0 - - - - - - -
 
Date/Time
CDT
Temp
°C
Wind Pressure Rain since
9am
mm
Weather Cloud Vis
km
Sea
Height
m
Swell
Dir  Spd
kts
Gust
kts
hPa Trend Height
m
Period
s
Dir
20/11:30pm 13.0 SSE 7 8 1013.6 - 0.0 - - - - - - -
20/11:00pm 13.1 SSE 8 9 1013.5 - 0.0 - - - - - - -
20/10:30pm 13.0 SSE 7 8 1013.2 - 0.0 - - - - - - -
20/10:00pm 13.5 SSE 7 8 1012.8 - 0.0 - - - - - - -
20/09:30pm 14.0 SSE 8 9 1012.5 - 0.0 - - - - - - -
20/09:00pm 14.8 S 8 10 1011.9 - 0.0 - - - - - - -
20/08:30pm 15.7 S 7 10 1011.9 - 0.0 - - - - - - -
20/08:00pm 17.5 S 9 13 1011.6 - 0.0 - - - - - - -
20/07:30pm 18.5 SSW 10 15 1011.2 - 0.0 - - - - - - -
20/07:00pm 19.0 SSW 11 15 1010.8 - 0.0 - - - - - - -
20/06:30pm 17.2 SSW 10 16 1010.4 - 0.0 - - - - - - -
20/06:00pm 17.5 SSW 11 15 1009.8 - 0.0 - - - - - - -
20/05:30pm 18.3 SSW 11 14 1010.2 - 0.0 - - - - - - -
20/05:00pm 20.1 SW 13 17 1010.1 - 0.0 - - - - - - -
20/04:30pm 19.8 SW 14 17 1010.0 - 0.0 - - - - - - -
20/04:00pm 19.5 SW 12 18 1010.0 - 0.0 - - - - - - -
20/03:30pm 19.9 SW 15 19 1009.8 - 0.0 - - - - - - -
20/03:00pm 19.8 SSW 13 21 1009.4 R 0.0 Fine Partly cloudy 35 1 3.5 6 SW
20/02:30pm 19.9 SSW 13 19 1009.6 - 0.0 - - - - - - -
20/02:00pm 20.1 SSW 12 16 1009.7 - 0.0 - - - - - - -
20/01:30pm 19.0 SSW 12 16 1009.5 - 0.0 - - - - - - -
20/01:00pm 18.5 SSW 13 16 1009.4 - 0.0 - - - - - - -
20/12:30pm 18.6 S 13 18 1009.1 - 0.0 - - - - - - -
20/12:00pm 18.8 S 13 20 1008.3 - 0.0 - - - - - - -
20/11:30am 18.3 S 15 21 1008.4 - 0.0 - - - - - - -
20/11:00am 17.4 S 14 19 1008.1 - 0.0 - - - - - - -
20/10:30am 16.6 S 13 18 1007.9 - 0.0 - - - - - - -
20/10:00am 17.3 S 14 22 1007.6 - 0.0 - - - - - - -
20/09:30am 15.6 S 17 23 1007.5 - 0.0 - - - - - - -
20/09:00am 15.4 S 14 22 1006.8 R 9.4 Distant precip. Cloudy 22 1 4.1 6 SW
20/08:30am 14.9 S 16 23 1006.5 - 9.4 - - - - - - -
20/08:00am 14.5 S 15 21 1005.9 - 9.4 - - - - - - -
20/07:30am 14.2 S 15 21 1005.1 - 9.4 - - - - - - -
20/07:00am 14.3 S 14 20 1004.5 - 9.4 - - - - - - -
20/06:30am 14.1 S 15 21 1003.7 - 9.4 - - - - - - -
20/06:00am 14.0 S 19 25 1002.7 - 9.4 - - - - - - -
20/05:30am 14.4 S 16 22 1002.9 - 9.4 - - - - - - -
20/05:00am 14.6 S 15 20 1002.5 - 9.4 - - - - - - -
20/04:30am 14.7 S 16 22 1002.2 - 9.2 - - - - - - -
20/04:00am 15.0 S 16 23 1001.8 - 9.2 - - - - - - -
20/03:30am 15.2 SSW 18 24 1001.6 - 9.2 - - - - - - -
20/03:00am 15.7 SSW 16 23 1000.9 - 9.2 - - - - - - -
20/02:30am 15.8 SSW 11 14 1001.1 - 9.2 - - - - - - -
20/02:00am 15.8 W 4 6 1001.1 - 9.2 - - - - - - -
20/01:30am 14.9 ESE 5 6 1001.4 - 9.2 - - - - - - -
20/01:00am 15.0 ESE 6 8 1000.6 - 9.2 - - - - - - -
20/12:30am 15.3 SE 6 8 1001.1 - 9.2 - - - - - - -
20/12:20am 15.2 ESE 8 11 1001.1 - 9.2 - - - - - - -
20/12:00am 15.1 ESE 13 16 998.7 - 9.2 - - - - - - -
 
Date/Time
CDT
Temp
°C
Wind Pressure Rain since
9am
mm
Weather Cloud Vis
km
Sea
Height
m
Swell
Dir  Spd
kts
Gust
kts
hPa Trend Height
m
Period
s
Dir
19/11:30pm 15.0 ESE 15 20 998.9 - 9.2 - - - - - - -
19/11:00pm 15.0 SE 18 25 998.8 - 9.2 - - - - - - -
19/10:30pm 14.8 SE 19 27 1000.0 - 8.8 - - - - - - -
19/10:10pm 14.8 SE 22 32 1000.5 - 8.4 - - - - - - -
19/10:00pm 14.8 SSE 24 32 1001.0 - 8.4 - - - - - - -
19/09:32pm 15.1 SSE 21 31 1001.9 - 4.8 - - - - - - -
19/09:30pm 15.1 SSE 22 31 1001.9 - 4.8 - - - - - - -
19/09:00pm 15.6 SSE 20 27 1001.7 - 1.6 - - - - - - -
19/08:31pm 16.2 SSE 22 27 1001.4 - 1.6 - - - - - - -
19/08:30pm 16.2 - - - 1001.4 - 1.6 - - - - - - -
19/08:28pm 16.3 SSE 20 27 1001.6 - 1.6 - - - - - - -
19/08:00pm 17.4 S 23 33 1001.3 - 1.6 - - - - - - -
19/07:52pm 17.8 SSW 28 38 1000.9 - 1.4 - - - - - - -
19/07:50pm 18.4 SSW 30 38 1001.0 - 1.4 - - - - - - -
19/07:46pm 21.3 SSW 9 16 1000.9 - 1.0 - - - - - - -
19/07:30pm 22.6 SSW 7 9 998.8 - 0.0 - - - - - - -
19/07:00pm 23.4 S 6 7 998.8 - 0.0 - - - - - - -
19/06:30pm 25.1 NE 9 13 997.6 - 0.0 - - - - - - -
19/06:00pm 25.2 NE 9 12 997.6 - 0.0 - - - - - - -
19/05:30pm 25.2 NE 9 12 998.6 - 0.0 - - - - - - -
19/05:00pm 26.1 ENE 9 13 999.3 - 0.0 - - - - - - -
19/04:30pm 26.9 ENE 9 13 1000.1 - 0.0 - - - - - - -
19/04:00pm 26.4 NE 8 11 1001.1 - 0.0 - - - - - - -
19/03:30pm 26.2 ENE 11 16 1001.9 - 0.0 - - - - - - -
19/03:00pm 25.2 ENE 14 20 1002.4 F 0.0 Fine Mostly clear 15 1 4.1 6 SW
19/02:30pm 24.6 NE 15 21 1004.0 - 0.0 - - - - - - -
19/02:00pm 24.1 NE 15 19 1004.6 - 0.0 - - - - - - -
19/01:30pm 24.0 ENE 13 18 1005.1 - 0.0 - - - - - - -
19/01:00pm 25.0 NE 14 19 1005.8 - 0.0 - - - - - - -
19/12:30pm 24.4 NE 14 19 1006.6 - 0.0 - - - - - - -
19/12:00pm 24.0 ENE 13 18 1006.9 - 0.0 - - - - - - -
19/11:30am 23.7 ENE 14 17 1007.5 - 0.0 - - - - - - -
19/11:00am 22.5 ENE 9 12 1007.9 - 0.0 - - - - - - -
19/10:30am 20.9 E 11 15 1008.0 - 0.0 - - - - - - -
19/10:00am 19.5 ESE 12 16 1008.4 - 0.0 - - - - - - -
19/09:30am 18.7 ESE 13 16 1008.3 - 0.0 - - - - - - -
19/09:00am 17.2 ESE 13 16 1008.7 F 0.0 Distant precip. Mostly cloudy 15 1 3.9 7 SW
19/08:30am 16.5 ESE 13 18 1009.3 - 0.0 - - - - - - -
19/08:00am 16.1 ESE 13 17 1009.5 - 0.0 - - - - - - -
19/07:30am 15.6 ESE 14 19 1009.3 - 0.0 - - - - - - -
19/07:00am 15.1 ESE 15 20 1009.4 - 0.0 - - - - - - -
19/06:30am 14.7 ESE 15 20 1009.5 - 0.0 - - - - - - -
19/06:00am 14.5 ESE 14 20 1009.6 - 0.0 - - - - - - -
19/05:30am 14.3 ESE 14 19 1009.8 - 0.0 - - - - - - -
19/05:00am 14.4 ESE 15 21 1010.1 - 0.0 - - - - - - -
19/04:30am 14.3 ESE 15 21 1010.4 - 0.0 - - - - - - -
19/04:00am 14.3 ESE 17 26 1010.7 - 0.0 - - - - - - -
19/03:53am 14.2 ESE 16 26 1010.7 - 0.0 - - - - - - -
19/03:30am 14.1 ESE 16 22 1010.9 - 0.0 - - - - - - -
19/03:00am 14.0 ESE 16 23 1011.0 - 0.0 - - - - - - -
19/02:48am 14.2 ESE 17 27 1011.3 - 0.0 - - - - - - -
19/02:30am 14.1 ESE 17 23 1011.4 - 0.0 - - - - - - -
19/02:00am 14.2 ESE 17 26 1011.8 - 0.0 - - - - - - -
19/01:30am 14.1 ESE 18 26 1012.1 - 0.0 - - - - - - -
19/01:00am 14.2 ESE 18 25 1012.7 - 0.0 - - - - - - -
19/12:30am 14.1 ESE 16 22 1013.3 - 0.0 - - - - - - -
19/12:00am 14.1 ESE 17 25 1013.0 - 0.0 - - - - - - -
 
Date/Time
CDT
Temp
°C
Wind Pressure Rain since
9am
mm
Weather Cloud Vis
km
Sea
Height
m
Swell
Dir  Spd
kts
Gust
kts
hPa Trend Height
m
Period
s
Dir
18/11:30pm 14.2 SE 17 23 1013.7 - 0.0 - - - - - - -
18/11:19pm 14.2 ESE 16 29 1013.9 - 0.0 - - - - - - -
18/11:00pm 14.1 ESE 16 24 1014.0 - 0.0 - - - - - - -
18/10:30pm 14.2 ESE 13 23 1014.4 - 0.0 - - - - - - -
18/10:00pm 14.3 SE 10 17 1014.9 - 0.0 - - - - - - -
18/09:30pm 14.4 ESE 10 15 1015.0 - 0.0 - - - - - - -
18/09:00pm 14.6 SE 10 15 1014.4 - 0.0 - - - - - - -
18/08:30pm 15.2 ESE 13 19 1014.7 - 0.0 - - - - - - -
18/08:00pm 16.1 ESE 15 22 1014.9 - 0.0 - - - - - - -
18/07:45pm 16.1 ESE 15 25 1014.7 - 0.0 - - - - - - -
18/07:30pm 16.6 ESE 14 22 1014.7 - 0.0 - - - - - - -
18/07:00pm 17.2 ESE 15 21 1014.6 - 0.0 - - - - - - -
18/06:30pm 18.2 SE 16 22 1014.9 - 0.0 - - - - - - -
18/06:00pm 18.8 ESE 14 22 1014.5 - 0.0 - - - - - - -
18/05:30pm 18.8 SE 13 19 1015.0 - 0.0 - - - - - - -
18/05:00pm 18.5 ESE 16 23 1014.7 - 0.0 - - - - - - -
18/04:30pm 18.2 ESE 17 22 1014.9 - 0.0 - - - - - - -
18/04:00pm 18.3 SE 17 22 1015.5 - 0.0 - - - - - - -
18/03:30pm 18.5 ESE 15 21 1015.4 - 0.0 - - - - - - -
18/03:00pm 17.8 SE 16 23 1015.1 F 0.0 Haze Mostly cloudy 18 <0.5 4.8 7 SW
18/02:30pm 18.1 SE 16 21 1016.1 - 0.0 - - - - - - -
18/02:00pm 18.4 SE 15 19 1016.4 - 0.0 - - - - - - -
18/01:30pm 20.0 SE 12 17 1016.6 - 0.0 - - - - - - -
18/01:00pm 19.0 SE 14 19 1016.7 - 0.0 - - - - - - -
18/12:30pm 18.8 SE 14 19 1016.6 - 0.0 - - - - - - -
18/12:00pm 17.3 ESE 13 19 1017.1 - 0.0 - - - - - - -
18/11:30am 17.0 SE 12 17 1017.8 - 0.0 - - - - - - -
18/11:00am 17.5 SE 13 18 1018.0 - 0.0 - - - - - - -

Other Formats:

Comma delimited format used in spreadsheet applications
http://www.bom.gov.au/fwo/IDS60701/IDS60701.95805.axf

JavaScript Object Notation format (JSON) in row-major order
http://www.bom.gov.au/fwo/IDS60701/IDS60701.95805.json